createdAt,value
2016-09-07T00:00:22.666Z,54.55
2016-09-07T00:00:55.853Z,54.55
2016-09-07T00:01:28.175Z,54.46
2016-09-07T00:02:00.518Z,54.94
2016-09-07T00:02:32.840Z,54.46
2016-09-07T00:03:05.148Z,54.94
2016-09-07T00:03:37.476Z,54.65
2016-09-07T00:04:09.807Z,54.84
2016-09-07T00:04:42.132Z,54.55
2016-09-07T00:05:14.461Z,54.55
2016-09-07T00:05:46.775Z,54.53
2016-09-07T00:06:19.087Z,54.53
2016-09-07T00:06:51.432Z,54.82
2016-09-07T00:07:23.749Z,54.72
2016-09-07T00:07:56.098Z,54.62
2016-09-07T00:08:28.408Z,54.53
2016-09-07T00:09:00.721Z,54.94
2016-09-07T00:09:33.043Z,54.55
2016-09-07T00:10:05.374Z,54.91
2016-09-07T00:10:37.694Z,54.72
2016-09-07T00:11:10.011Z,54.55
2016-09-07T00:11:42.340Z,54.53
2016-09-07T00:12:14.665Z,54.53
2016-09-07T00:12:47.004Z,54.46
2016-09-07T00:13:19.334Z,54.43
2016-09-07T00:13:51.661Z,54.62
2016-09-07T00:14:23.994Z,54.24
2016-09-07T00:14:56.338Z,54.55
2016-09-07T00:15:28.663Z,54.33
2016-09-07T00:16:00.980Z,54.33
2016-09-07T00:16:33.317Z,55.1
2016-09-07T00:17:05.631Z,55.1
2016-09-07T00:17:37.963Z,54.46
2016-09-07T00:18:10.292Z,54.33
2016-09-07T00:18:42.614Z,54.27
2016-09-07T00:19:14.935Z,54.72
2016-09-07T00:19:47.262Z,54.53
2016-09-07T00:20:19.587Z,54.43
2016-09-07T00:20:51.915Z,54.33
2016-09-07T00:21:24.252Z,55.01
2016-09-07T00:21:56.600Z,54.53
2016-09-07T00:22:28.943Z,54.43
2016-09-07T00:23:01.278Z,54.72
2016-09-07T00:23:33.597Z,55.04
2016-09-07T00:24:05.918Z,54.62
2016-09-07T00:24:38.244Z,54.82
2016-09-07T00:25:10.567Z,54.72
2016-09-07T00:25:42.905Z,54.72
2016-09-07T00:26:15.252Z,54.72
2016-09-07T00:26:47.568Z,54.82
2016-09-07T00:27:19.901Z,54.72
2016-09-07T00:27:52.231Z,54.82
2016-09-07T00:28:24.564Z,55.1
2016-09-07T00:28:56.882Z,55.1
2016-09-07T00:29:29.193Z,54.72
2016-09-07T00:30:01.521Z,54.82
2016-09-07T00:30:33.842Z,55.2
2016-09-07T00:31:06.176Z,54.82
2016-09-07T00:31:38.502Z,54.82
2016-09-07T00:32:10.830Z,54.72
2016-09-07T00:32:43.161Z,54.91
2016-09-07T00:33:15.492Z,54.91
2016-09-07T00:33:47.814Z,55.2
2016-09-07T00:34:20.125Z,55.1
2016-09-07T00:34:52.442Z,54.72
2016-09-07T00:35:24.779Z,54.72
2016-09-07T00:35:57.135Z,54.82
2016-09-07T00:36:29.457Z,55.2
2016-09-07T00:37:01.770Z,54.82
2016-09-07T00:37:34.086Z,54.72
2016-09-07T00:38:06.403Z,55.2
2016-09-07T00:38:38.738Z,55.2
2016-09-07T00:39:11.051Z,54.62
2016-09-07T00:39:43.376Z,54.62
2016-09-07T00:40:15.725Z,55.1
2016-09-07T00:40:48.049Z,55.3
2016-09-07T00:41:20.365Z,55.1
2016-09-07T00:41:52.687Z,54.53
2016-09-07T00:42:25.027Z,55.2
2016-09-07T00:42:57.352Z,54.62
2016-09-07T00:43:29.667Z,54.53
2016-09-07T00:44:01.994Z,54.62
2016-09-07T00:44:34.314Z,54.62
2016-09-07T00:45:06.635Z,55.1
2016-09-07T00:45:38.963Z,54.53
2016-09-07T00:46:11.290Z,55.01
2016-09-07T00:46:43.621Z,54.53
2016-09-07T00:47:15.950Z,54.62
2016-09-07T00:47:48.288Z,54.53
2016-09-07T00:48:20.615Z,54.53
2016-09-07T00:48:52.948Z,55.01
2016-09-07T00:49:25.286Z,54.53
2016-09-07T00:49:57.623Z,55.3
2016-09-07T00:50:29.946Z,54.82
2016-09-07T00:51:02.262Z,55.01
2016-09-07T00:51:34.582Z,54.91
2016-09-07T00:52:06.921Z,54.72
2016-09-07T00:52:39.247Z,54.91
2016-09-07T00:53:11.581Z,55.2
2016-09-07T00:53:43.903Z,54.62
2016-09-07T00:54:16.255Z,55.3
2016-09-07T00:54:48.575Z,55.3
2016-09-07T00:55:20.901Z,55.4
2016-09-07T00:55:53.231Z,54.91
2016-09-07T00:56:25.581Z,54.62
2016-09-07T00:56:57.911Z,55.4
2016-09-07T00:57:30.241Z,54.62
2016-09-07T00:58:02.577Z,54.62
2016-09-07T00:58:35.485Z,54.62
2016-09-07T00:59:07.806Z,55.4
2016-09-07T00:59:40.151Z,54.53
2016-09-07T01:00:12.498Z,54.72
2016-09-07T01:00:44.824Z,55.2
2016-09-07T01:01:17.158Z,55.01
2016-09-07T01:01:49.492Z,54.72
2016-09-07T01:02:21.812Z,55.01
2016-09-07T01:02:54.107Z,54.91
2016-09-07T01:03:26.426Z,55.68
2016-09-07T01:03:58.739Z,55.49
2016-09-07T01:04:31.071Z,55.49
2016-09-07T01:05:03.395Z,54.98
2016-09-07T01:05:35.716Z,55.01
2016-09-07T01:06:08.039Z,54.88
2016-09-07T01:06:40.352Z,54.91
2016-09-07T01:07:12.704Z,55.01
2016-09-07T01:07:45.035Z,54.88
2016-09-07T01:08:17.370Z,55.68
2016-09-07T01:08:49.691Z,54.88
2016-09-07T01:09:22.019Z,55.49
2016-09-07T01:09:54.345Z,54.88
2016-09-07T01:10:26.681Z,55.01
2016-09-07T01:10:58.997Z,54.91
2016-09-07T01:11:31.329Z,54.91
2016-09-07T01:12:03.647Z,55.46
2016-09-07T01:12:35.978Z,55.01
2016-09-07T01:13:08.299Z,54.82
2016-09-07T01:13:40.641Z,55.4
2016-09-07T01:14:12.952Z,54.82
2016-09-07T01:14:45.261Z,54.88
2016-09-07T01:15:17.585Z,54.91
2016-09-07T01:15:49.894Z,54.98
2016-09-07T01:16:22.212Z,54.79
2016-09-07T01:16:54.525Z,54.79
2016-09-07T01:17:26.837Z,55.46
2016-09-07T01:17:59.163Z,54.88
2016-09-07T01:18:31.500Z,55.4
2016-09-07T01:19:03.836Z,54.82
2016-09-07T01:19:36.172Z,54.79
2016-09-07T01:20:08.490Z,54.79
2016-09-07T01:20:40.822Z,55.46
2016-09-07T01:21:13.149Z,54.88
2016-09-07T01:21:45.460Z,54.79
2016-09-07T01:22:17.759Z,55.46
2016-09-07T01:22:50.081Z,55.08
2016-09-07T01:23:22.417Z,54.88
2016-09-07T01:23:54.738Z,55.08
2016-09-07T01:24:27.058Z,55.1
2016-09-07T01:24:59.387Z,55.27
2016-09-07T01:25:31.702Z,54.88
2016-09-07T01:26:04.035Z,54.98
2016-09-07T01:26:36.350Z,55.01
2016-09-07T01:27:08.653Z,54.98
2016-09-07T01:27:40.978Z,55.08
2016-09-07T01:28:13.312Z,55.27
2016-09-07T01:28:45.641Z,55.08
2016-09-07T01:29:17.989Z,55.36
2016-09-07T01:29:50.308Z,55.08
2016-09-07T01:30:22.636Z,54.88
2016-09-07T01:30:54.982Z,54.98
2016-09-07T01:31:27.299Z,55.08
2016-09-07T01:31:59.613Z,54.98
2016-09-07T01:32:31.928Z,55.08
2016-09-07T01:33:04.230Z,54.88
2016-09-07T01:33:36.544Z,55.56
2016-09-07T01:34:08.881Z,55.56
2016-09-07T01:34:41.210Z,55.46
2016-09-07T01:35:13.554Z,54.88
2016-09-07T01:35:45.873Z,54.98
2016-09-07T01:36:18.187Z,54.98
2016-09-07T01:36:50.532Z,54.98
2016-09-07T01:37:22.856Z,54.88
2016-09-07T01:37:55.173Z,54.88
2016-09-07T01:38:27.506Z,55.08
2016-09-07T01:38:59.814Z,54.98
2016-09-07T01:39:32.107Z,54.88
2016-09-07T01:40:04.430Z,54.98
2016-09-07T01:40:36.743Z,55.76
2016-09-07T01:41:09.062Z,55.76
2016-09-07T01:41:41.389Z,55.85
2016-09-07T01:42:13.718Z,54.98
2016-09-07T01:42:46.031Z,55.08
2016-09-07T01:43:18.368Z,55.85
2016-09-07T01:43:50.686Z,55.08
2016-09-07T01:44:23.007Z,55.08
2016-09-07T01:44:55.329Z,55.18
2016-09-07T01:45:27.667Z,55.85
2016-09-07T01:45:59.982Z,55.18
2016-09-07T01:46:32.285Z,54.98
2016-09-07T01:47:04.603Z,55.08
2016-09-07T01:47:36.945Z,54.88
2016-09-07T01:48:09.280Z,55.76
2016-09-07T01:48:41.615Z,54.88
2016-09-07T01:49:13.928Z,54.88
2016-09-07T01:49:46.261Z,55.18
2016-09-07T01:50:18.574Z,55.85
2016-09-07T01:50:50.892Z,55.08
2016-09-07T01:51:23.215Z,55.18
2016-09-07T01:51:55.548Z,55.08
2016-09-07T01:52:27.878Z,55.08
2016-09-07T01:53:00.209Z,55.36
2016-09-07T01:53:32.515Z,55.18
2016-09-07T01:54:04.844Z,55.18
2016-09-07T01:54:37.161Z,55.85
2016-09-07T01:55:09.456Z,55.08
2016-09-07T01:55:41.790Z,55.36
2016-09-07T01:56:14.140Z,55.08
2016-09-07T01:56:46.471Z,55.08
2016-09-07T01:57:18.791Z,55.18
2016-09-07T01:57:51.113Z,55.27
2016-09-07T01:58:23.440Z,55.08
2016-09-07T01:58:55.765Z,55.18
2016-09-07T01:59:28.099Z,55.27
2016-09-07T02:00:00.418Z,55.27
2016-09-07T02:00:32.761Z,55.27
2016-09-07T02:01:05.100Z,55.18
2016-09-07T02:01:37.447Z,55.27
2016-09-07T02:02:09.777Z,55.18
2016-09-07T02:02:42.101Z,55.27
2016-09-07T02:03:14.417Z,55.36
2016-09-07T02:03:46.743Z,55.27
2016-09-07T02:04:19.064Z,55.08
2016-09-07T02:04:51.387Z,55.46
2016-09-07T02:05:23.699Z,55.36
2016-09-07T02:05:56.018Z,55.36
2016-09-07T02:06:28.346Z,55.56
2016-09-07T02:07:00.677Z,55.27
2016-09-07T02:07:32.989Z,55.27
2016-09-07T02:08:05.313Z,55.36
2016-09-07T02:08:37.638Z,55.36
2016-09-07T02:09:09.954Z,55.27
2016-09-07T02:09:42.273Z,55.18
2016-09-07T02:10:14.591Z,55.18
2016-09-07T02:10:46.916Z,55.18
2016-09-07T02:11:19.247Z,55.27
2016-09-07T02:11:51.585Z,55.18
2016-09-07T02:12:23.907Z,55.08
2016-09-07T02:12:56.228Z,55.08
2016-09-07T02:13:28.555Z,55.46
2016-09-07T02:14:00.883Z,55.46
2016-09-07T02:14:33.204Z,55.36
2016-09-07T02:15:05.532Z,55.08
2016-09-07T02:15:37.869Z,55.08
2016-09-07T02:16:10.204Z,55.08
2016-09-07T02:16:42.541Z,55.66
2016-09-07T02:17:14.871Z,54.98
2016-09-07T02:17:47.203Z,55.08
2016-09-07T02:18:19.546Z,55.18
2016-09-07T02:18:51.871Z,54.88
2016-09-07T02:19:24.198Z,54.88
2016-09-07T02:19:56.516Z,55.18
2016-09-07T02:20:28.844Z,55.08
2016-09-07T02:21:01.167Z,55.08
2016-09-07T02:21:33.498Z,55.27
2016-09-07T02:22:05.829Z,55.08
2016-09-07T02:22:38.140Z,54.98
2016-09-07T02:23:10.453Z,55.08
2016-09-07T02:23:42.781Z,55.27
2016-09-07T02:24:15.106Z,54.98
2016-09-07T02:24:47.444Z,55.08
2016-09-07T02:25:19.780Z,55.34
2016-09-07T02:25:52.099Z,54.88
2016-09-07T02:26:24.429Z,54.98
2016-09-07T02:26:56.741Z,54.98
2016-09-07T02:27:29.079Z,55.66
2016-09-07T02:28:01.395Z,55.56
2016-09-07T02:28:33.722Z,55.36
2016-09-07T02:29:06.048Z,55.36
2016-09-07T02:29:38.377Z,55.46
2016-09-07T02:30:10.684Z,55.36
2016-09-07T02:30:43.004Z,55.54
2016-09-07T02:31:15.320Z,54.88
2016-09-07T02:31:47.642Z,55.56
2016-09-07T02:32:19.961Z,55.44
2016-09-07T02:32:52.271Z,54.79
2016-09-07T02:33:24.592Z,55.54
2016-09-07T02:33:56.910Z,55.56
2016-09-07T02:34:29.235Z,54.69
2016-09-07T02:35:01.551Z,54.88
2016-09-07T02:35:33.866Z,54.79
2016-09-07T02:36:06.172Z,54.98
2016-09-07T02:36:38.490Z,54.98
2016-09-07T02:37:10.821Z,54.88
2016-09-07T02:37:43.154Z,54.86
2016-09-07T02:38:15.475Z,54.76
2016-09-07T02:38:47.800Z,55.73
2016-09-07T02:39:20.118Z,55.76
2016-09-07T02:39:52.442Z,54.88
2016-09-07T02:40:24.778Z,54.86
2016-09-07T02:40:57.100Z,55.56
2016-09-07T02:41:29.426Z,54.76
2016-09-07T02:42:01.759Z,55.36
2016-09-07T02:42:34.074Z,55.18
2016-09-07T02:43:06.394Z,55.36
2016-09-07T02:43:38.732Z,54.98
2016-09-07T02:44:11.059Z,55.56
2016-09-07T02:44:43.380Z,55.05
2016-09-07T02:45:15.728Z,55.05
2016-09-07T02:45:48.034Z,55.36
2016-09-07T02:46:20.351Z,55.24
2016-09-07T02:46:53.426Z,55.54
2016-09-07T02:47:25.745Z,55.73
2016-09-07T02:47:58.084Z,54.96
2016-09-07T02:48:30.416Z,55.34
2016-09-07T02:49:02.728Z,55.63
2016-09-07T02:49:35.049Z,55.63
2016-09-07T02:50:07.368Z,55.34
2016-09-07T02:50:39.695Z,55.24
2016-09-07T02:51:12.006Z,55.34
2016-09-07T02:51:44.329Z,55.63
2016-09-07T02:52:16.676Z,55.44
2016-09-07T02:52:49.025Z,55.24
2016-09-07T02:53:21.349Z,55.73
2016-09-07T02:53:53.694Z,55.92
2016-09-07T02:54:26.021Z,55.44
2016-09-07T02:54:58.350Z,55.73
2016-09-07T02:55:30.675Z,55.24
2016-09-07T02:56:02.997Z,55.82
2016-09-07T02:56:35.314Z,55.82
2016-09-07T02:57:07.631Z,55.82
2016-09-07T02:57:39.950Z,55.82
2016-09-07T02:58:12.247Z,56.01
2016-09-07T02:58:44.564Z,55.63
2016-09-07T02:59:16.895Z,55.73
2016-09-07T02:59:49.204Z,55.63
2016-09-07T03:00:21.529Z,55.63
2016-09-07T03:00:53.833Z,55.54
2016-09-07T03:01:26.154Z,55.54
2016-09-07T03:01:58.491Z,55.63
2016-09-07T03:02:30.791Z,55.54
2016-09-07T03:03:03.110Z,55.63
2016-09-07T03:03:35.428Z,55.54
2016-09-07T03:04:07.755Z,55.73
2016-09-07T03:04:40.077Z,55.44
2016-09-07T03:05:12.403Z,55.63
2016-09-07T03:05:44.717Z,55.73
2016-09-07T03:06:17.036Z,55.73
2016-09-07T03:06:49.359Z,55.44
2016-09-07T03:07:21.679Z,55.44
2016-09-07T03:07:53.993Z,55.54
2016-09-07T03:08:26.312Z,55.54
2016-09-07T03:08:58.650Z,55.54
2016-09-07T03:09:30.967Z,55.56
2016-09-07T03:10:03.280Z,55.82
2016-09-07T03:10:35.586Z,55.44
2016-09-07T03:11:07.918Z,55.44
2016-09-07T03:11:40.242Z,55.44
2016-09-07T03:12:12.571Z,55.44
2016-09-07T03:12:44.882Z,55.44
2016-09-07T03:13:17.211Z,55.44
2016-09-07T03:13:49.535Z,55.34
2016-09-07T03:14:21.845Z,55.44
2016-09-07T03:14:54.184Z,55.73
2016-09-07T03:15:26.521Z,55.24
2016-09-07T03:15:58.852Z,55.73
2016-09-07T03:16:31.189Z,55.54
2016-09-07T03:17:03.503Z,55.54
2016-09-07T03:17:35.837Z,55.73
2016-09-07T03:18:08.160Z,55.54
2016-09-07T03:18:40.479Z,55.63
2016-09-07T03:19:12.801Z,55.54
2016-09-07T03:19:45.127Z,55.63
2016-09-07T03:20:17.454Z,55.34
2016-09-07T03:20:49.783Z,55.24
2016-09-07T03:21:22.108Z,55.54
2016-09-07T03:21:54.433Z,55.73
2016-09-07T03:22:26.756Z,55.73
2016-09-07T03:22:59.086Z,55.54
2016-09-07T03:23:31.399Z,55.44
2016-09-07T03:24:03.736Z,55.34
2016-09-07T03:24:36.063Z,55.54
2016-09-07T03:25:08.391Z,55.44
2016-09-07T03:25:40.718Z,55.63
2016-09-07T03:26:13.044Z,55.54
2016-09-07T03:26:45.388Z,55.63
2016-09-07T03:27:17.691Z,55.44
2016-09-07T03:27:50.017Z,55.82
2016-09-07T03:28:22.334Z,55.54
2016-09-07T03:28:54.657Z,55.82
2016-09-07T03:29:26.979Z,55.34
2016-09-07T03:29:59.295Z,55.44
2016-09-07T03:30:31.629Z,55.34
2016-09-07T03:31:03.947Z,55.34
2016-09-07T03:31:36.274Z,55.44
2016-09-07T03:32:08.599Z,55.44
2016-09-07T03:32:40.917Z,55.92
2016-09-07T03:33:13.252Z,55.44
2016-09-07T03:33:45.586Z,55.44
2016-09-07T03:34:17.915Z,55.54
2016-09-07T03:34:50.249Z,55.63
2016-09-07T03:35:22.562Z,55.63
2016-09-07T03:35:54.889Z,55.73
2016-09-07T03:36:27.230Z,55.73
2016-09-07T03:36:59.544Z,55.63
2016-09-07T03:37:31.866Z,55.82
2016-09-07T03:38:04.194Z,55.63
2016-09-07T03:38:36.506Z,55.82
2016-09-07T03:39:08.814Z,55.63
2016-09-07T03:39:41.137Z,55.63
2016-09-07T03:40:13.463Z,55.44
2016-09-07T03:40:45.797Z,55.63
2016-09-07T03:41:18.107Z,55.63
2016-09-07T03:41:50.435Z,55.34
2016-09-07T03:42:22.786Z,55.63
2016-09-07T03:42:55.109Z,55.44
2016-09-07T03:43:27.437Z,55.73
2016-09-07T03:43:59.750Z,55.54
2016-09-07T03:44:32.083Z,55.44
2016-09-07T03:45:04.407Z,55.63
2016-09-07T03:45:36.712Z,55.73
2016-09-07T03:46:09.021Z,55.73
2016-09-07T03:46:41.347Z,55.44
2016-09-07T03:47:13.672Z,55.44
2016-09-07T03:47:46.007Z,55.54
2016-09-07T03:48:18.335Z,55.34
2016-09-07T03:48:50.663Z,55.54
2016-09-07T03:49:22.975Z,55.54
2016-09-07T03:49:55.304Z,55.54
2016-09-07T03:50:27.647Z,55.54
2016-09-07T03:50:59.948Z,55.34
2016-09-07T03:51:32.266Z,55.63
2016-09-07T03:52:04.582Z,55.34
2016-09-07T03:52:36.902Z,55.54
2016-09-07T03:53:09.238Z,55.34
2016-09-07T03:53:41.561Z,55.34
2016-09-07T03:54:13.881Z,55.54
2016-09-07T03:54:46.210Z,55.63
2016-09-07T03:55:18.516Z,55.63
2016-09-07T03:55:50.840Z,55.54
2016-09-07T03:56:23.164Z,55.44
2016-09-07T03:56:55.491Z,55.54
2016-09-07T03:57:27.809Z,55.63
2016-09-07T03:58:00.118Z,55.54
2016-09-07T03:58:32.458Z,55.54
2016-09-07T03:59:04.762Z,55.92
2016-09-07T03:59:37.081Z,55.54
2016-09-07T04:00:09.405Z,55.44
2016-09-07T04:00:41.723Z,55.44
2016-09-07T04:01:14.039Z,55.54
2016-09-07T04:01:46.359Z,55.63
2016-09-07T04:02:18.674Z,55.63
2016-09-07T04:02:51.001Z,56.01
2016-09-07T04:03:23.332Z,56.01
2016-09-07T04:03:55.667Z,55.92
2016-09-07T04:04:27.997Z,56.11
2016-09-07T04:05:00.307Z,55.63
2016-09-07T04:05:32.634Z,55.54
2016-09-07T04:06:04.957Z,55.44
2016-09-07T04:06:37.282Z,55.82
2016-09-07T04:07:09.610Z,55.82
2016-09-07T04:07:41.943Z,55.54
2016-09-07T04:08:14.274Z,56.01
2016-09-07T04:08:46.586Z,55.63
2016-09-07T04:09:18.905Z,55.44
2016-09-07T04:09:51.229Z,56.01
2016-09-07T04:10:23.547Z,55.54
2016-09-07T04:10:55.886Z,55.92
2016-09-07T04:11:28.203Z,55.44
2016-09-07T04:12:00.519Z,55.54
2016-09-07T04:12:32.845Z,55.34
2016-09-07T04:13:05.172Z,55.73
2016-09-07T04:13:37.466Z,55.54
2016-09-07T04:14:09.797Z,55.44
2016-09-07T04:14:42.117Z,55.44
2016-09-07T04:15:14.440Z,55.54
2016-09-07T04:15:46.754Z,55.54
2016-09-07T04:16:19.073Z,55.54
2016-09-07T04:16:51.387Z,55.54
2016-09-07T04:17:23.722Z,55.44
2016-09-07T04:17:56.055Z,55.63
2016-09-07T04:18:28.367Z,55.63
2016-09-07T04:19:00.675Z,55.63
2016-09-07T04:19:32.996Z,55.44
2016-09-07T04:20:05.319Z,55.63
2016-09-07T04:20:37.647Z,55.44
2016-09-07T04:21:09.952Z,55.44
2016-09-07T04:21:42.262Z,55.73
2016-09-07T04:22:14.644Z,55.82
2016-09-07T04:22:46.972Z,55.44
2016-09-07T04:23:19.307Z,55.44
2016-09-07T04:23:51.634Z,55.44
2016-09-07T04:24:23.957Z,55.44
2016-09-07T04:24:56.276Z,55.24
2016-09-07T04:25:28.605Z,55.44
2016-09-07T04:26:00.935Z,55.44
2016-09-07T04:26:33.322Z,55.54
2016-09-07T04:27:05.636Z,55.73
2016-09-07T04:27:37.952Z,55.44
2016-09-07T04:28:10.274Z,55.54
2016-09-07T04:28:42.601Z,55.44
2016-09-07T04:29:14.910Z,55.54
2016-09-07T04:29:47.233Z,55.82
2016-09-07T04:30:19.589Z,55.24
2016-09-07T04:30:51.925Z,55.24
2016-09-07T04:31:24.255Z,56.21
2016-09-07T04:31:56.595Z,56.11
2016-09-07T04:32:28.924Z,55.54
2016-09-07T04:33:01.252Z,56.21
2016-09-07T04:33:33.570Z,55.92
2016-09-07T04:34:05.882Z,55.54
2016-09-07T04:34:38.197Z,55.92
2016-09-07T04:35:10.506Z,55.34
2016-09-07T04:35:42.814Z,55.41
2016-09-07T04:36:15.147Z,55.34
2016-09-07T04:36:47.467Z,55.44
2016-09-07T04:37:19.829Z,55.99
2016-09-07T04:37:52.152Z,55.34
2016-09-07T04:38:24.479Z,56.21
2016-09-07T04:38:56.794Z,55.41
2016-09-07T04:39:29.113Z,56.11
2016-09-07T04:40:01.425Z,55.82
2016-09-07T04:40:33.751Z,55.54
2016-09-07T04:41:06.110Z,55.73
2016-09-07T04:41:38.436Z,55.82
2016-09-07T04:42:10.765Z,55.92
2016-09-07T04:42:43.095Z,55.82
2016-09-07T04:43:15.419Z,56.09
2016-09-07T04:43:47.759Z,55.79
2016-09-07T04:44:20.999Z,55.99
2016-09-07T04:44:53.310Z,55.79
2016-09-07T04:45:25.629Z,55.79
2016-09-07T04:45:57.949Z,55.82
2016-09-07T04:46:30.264Z,55.6
2016-09-07T04:47:02.601Z,55.92
2016-09-07T04:47:34.943Z,55.7
2016-09-07T04:48:07.261Z,55.73
2016-09-07T04:48:39.578Z,56.27
2016-09-07T04:49:11.903Z,55.6
2016-09-07T04:49:44.232Z,55.89
2016-09-07T04:50:16.564Z,55.73
2016-09-07T04:50:48.862Z,55.92
2016-09-07T04:51:21.171Z,55.79
2016-09-07T04:51:53.519Z,55.73
2016-09-07T04:52:25.843Z,55.6
2016-09-07T04:52:58.155Z,55.99
2016-09-07T04:53:30.482Z,56.01
2016-09-07T04:54:02.802Z,55.92
2016-09-07T04:54:35.134Z,55.92
2016-09-07T04:55:07.426Z,55.92
2016-09-07T04:55:39.749Z,55.7
2016-09-07T04:56:12.077Z,56.09
2016-09-07T04:56:44.394Z,56.18
2016-09-07T04:57:16.731Z,56.18
2016-09-07T04:57:49.062Z,56.11
2016-09-07T04:58:21.381Z,55.79
2016-09-07T04:58:53.715Z,56.01
2016-09-07T04:59:26.018Z,55.99
2016-09-07T04:59:58.330Z,55.89
2016-09-07T05:00:30.672Z,56.18
2016-09-07T05:01:03.002Z,55.63
2016-09-07T05:01:35.335Z,55.89
2016-09-07T05:02:07.652Z,55.99
2016-09-07T05:02:39.991Z,55.79
2016-09-07T05:03:12.308Z,55.79
2016-09-07T05:03:44.625Z,56.18
2016-09-07T05:04:16.946Z,55.79
2016-09-07T05:04:49.250Z,56.37
2016-09-07T05:05:21.560Z,55.89
2016-09-07T05:05:53.887Z,55.79
2016-09-07T05:06:26.248Z,55.89
2016-09-07T05:06:58.589Z,55.92
2016-09-07T05:07:30.915Z,55.79
2016-09-07T05:08:03.254Z,55.92
2016-09-07T05:08:35.569Z,55.89
2016-09-07T05:09:07.869Z,55.99
2016-09-07T05:09:40.202Z,55.79
2016-09-07T05:10:12.521Z,56.27
2016-09-07T05:10:45.527Z,55.6
2016-09-07T05:11:17.847Z,55.82
2016-09-07T05:11:51.042Z,56.18
2016-09-07T05:12:23.340Z,55.89
2016-09-07T05:12:55.660Z,55.89
2016-09-07T05:13:27.984Z,55.79
2016-09-07T05:14:00.312Z,55.89
2016-09-07T05:14:32.639Z,55.89
2016-09-07T05:15:04.963Z,56.27
2016-09-07T05:15:37.295Z,56.27
2016-09-07T05:16:09.609Z,55.99
2016-09-07T05:16:41.936Z,55.79
2016-09-07T05:17:14.256Z,55.99
2016-09-07T05:17:46.591Z,55.79
2016-09-07T05:18:18.912Z,55.79
2016-09-07T05:18:51.254Z,55.89
2016-09-07T05:19:23.567Z,55.89
2016-09-07T05:19:55.874Z,55.89
2016-09-07T05:20:29.114Z,55.79
2016-09-07T05:21:01.448Z,56.47
2016-09-07T05:21:33.770Z,56.57
2016-09-07T05:22:06.102Z,55.99
2016-09-07T05:22:39.545Z,56.09
2016-09-07T05:23:12.546Z,55.89
2016-09-07T05:23:44.856Z,56.09
2016-09-07T05:24:17.188Z,56.37
2016-09-07T05:24:49.510Z,55.89
2016-09-07T05:25:21.831Z,55.89
2016-09-07T05:25:56.059Z,55.89
2016-09-07T05:26:28.384Z,55.89
2016-09-07T05:27:01.387Z,56.18
2016-09-07T05:27:34.197Z,55.99
2016-09-07T05:28:06.653Z,56.47
2016-09-07T05:28:39.058Z,55.79
2016-09-07T05:29:11.408Z,56.18
2016-09-07T05:29:43.992Z,56.09
2016-09-07T05:30:16.512Z,55.89
2016-09-07T05:30:48.835Z,55.79
2016-09-07T05:31:21.159Z,55.99
2016-09-07T05:31:54.028Z,56.47
2016-09-07T05:32:27.125Z,55.82
2016-09-07T05:32:59.431Z,55.82
2016-09-07T05:33:31.773Z,56.57
2016-09-07T05:34:04.092Z,55.89
2016-09-07T05:34:36.428Z,55.79
2016-09-07T05:35:09.679Z,55.79
2016-09-07T05:35:42.604Z,55.89
2016-09-07T05:36:14.962Z,56.09
2016-09-07T05:36:47.278Z,55.92
2016-09-07T05:37:19.604Z,56.57
2016-09-07T05:37:51.916Z,55.89
2016-09-07T05:38:24.251Z,55.92
2016-09-07T05:38:56.565Z,55.82
2016-09-07T05:39:28.884Z,55.79
2016-09-07T05:40:01.220Z,56.59
2016-09-07T05:40:33.669Z,56.09
2016-09-07T05:41:05.985Z,55.89
2016-09-07T05:41:39.216Z,56.01
2016-09-07T05:42:11.654Z,55.99
2016-09-07T05:42:43.976Z,55.82
2016-09-07T05:43:16.287Z,55.82
2016-09-07T05:43:48.686Z,55.79
2016-09-07T05:44:21.305Z,56.01
2016-09-07T05:44:56.156Z,56.57
2016-09-07T05:45:31.754Z,56.01
2016-09-07T05:46:06.314Z,55.7
2016-09-07T05:46:41.267Z,56.18
2016-09-07T05:47:13.851Z,55.79
2016-09-07T05:47:47.810Z,55.89
2016-09-07T05:48:22.483Z,55.89
2016-09-07T05:48:55.067Z,55.92
2016-09-07T05:49:27.627Z,55.92
2016-09-07T05:50:00.382Z,55.92
2016-09-07T05:50:32.961Z,55.7
2016-09-07T05:51:05.511Z,55.82
2016-09-07T05:51:37.975Z,55.92
2016-09-07T05:52:10.289Z,56.49
2016-09-07T05:52:42.612Z,55.92
2016-09-07T05:53:14.929Z,56.01
2016-09-07T05:53:47.311Z,55.82
2016-09-07T05:54:19.691Z,55.92
2016-09-07T05:54:52.012Z,55.82
2016-09-07T05:55:25.155Z,55.82
2016-09-07T05:55:57.461Z,55.92
2016-09-07T05:56:29.790Z,55.92
2016-09-07T05:57:02.125Z,55.82
2016-09-07T05:57:34.476Z,56.59
2016-09-07T05:58:07.218Z,55.82
2016-09-07T05:58:39.567Z,56.4
2016-09-07T05:59:11.908Z,56.01
2016-09-07T05:59:45.129Z,55.92
2016-09-07T06:00:17.526Z,56.01
2016-09-07T06:00:49.969Z,55.82
2016-09-07T06:01:22.275Z,55.92
2016-09-07T06:01:54.608Z,55.92
2016-09-07T06:02:27.599Z,55.92
2016-09-07T06:02:59.915Z,56.01
2016-09-07T06:03:32.262Z,55.82
2016-09-07T06:04:04.851Z,56.01
2016-09-07T06:04:37.484Z,55.82
2016-09-07T06:05:09.804Z,55.63
2016-09-07T06:05:42.119Z,55.92
2016-09-07T06:06:14.455Z,56.21
2016-09-07T06:06:46.787Z,56.01
2016-09-07T06:07:19.128Z,55.92
2016-09-07T06:07:51.487Z,55.92
2016-09-07T06:08:23.820Z,56.01
2016-09-07T06:08:56.154Z,56.4
2016-09-07T06:09:28.484Z,56.01
2016-09-07T06:10:00.820Z,55.63
2016-09-07T06:10:33.155Z,55.73
2016-09-07T06:11:05.462Z,55.82
2016-09-07T06:11:37.773Z,55.82
2016-09-07T06:12:10.112Z,55.82
2016-09-07T06:12:42.434Z,55.63
2016-09-07T06:13:15.671Z,56.11
2016-09-07T06:13:49.705Z,55.73
2016-09-07T06:14:22.034Z,55.92
2016-09-07T06:14:54.399Z,56.11
2016-09-07T06:15:27.617Z,55.92
2016-09-07T06:16:02.159Z,56.01
2016-09-07T06:16:34.470Z,56.21
2016-09-07T06:17:06.792Z,55.82
2016-09-07T06:17:39.125Z,55.54
2016-09-07T06:18:12.664Z,55.92
2016-09-07T06:18:47.456Z,55.73
2016-09-07T06:19:19.788Z,55.92
2016-09-07T06:19:52.134Z,55.34
2016-09-07T06:20:24.461Z,55.34
2016-09-07T06:20:56.780Z,55.54
2016-09-07T06:21:29.115Z,55.54
2016-09-07T06:22:01.551Z,55.73
2016-09-07T06:22:33.884Z,55.44
2016-09-07T06:23:06.221Z,55.36
2016-09-07T06:23:38.561Z,55.76
2016-09-07T06:24:10.882Z,55.82
2016-09-07T06:24:43.205Z,55.56
2016-09-07T06:25:15.534Z,55.46
2016-09-07T06:25:47.860Z,55.27
2016-09-07T06:26:20.184Z,55.46
2016-09-07T06:26:52.520Z,55.56
2016-09-07T06:27:24.851Z,55.56
2016-09-07T06:27:57.181Z,55.94
2016-09-07T06:28:29.530Z,55.46
2016-09-07T06:29:01.847Z,55.56
2016-09-07T06:29:34.156Z,55.56
2016-09-07T06:30:06.472Z,55.94
2016-09-07T06:30:38.811Z,55.66
2016-09-07T06:31:11.116Z,55.66
2016-09-07T06:31:43.432Z,55.46
2016-09-07T06:32:16.496Z,55.56
2016-09-07T06:32:48.823Z,55.36
2016-09-07T06:33:21.154Z,55.46
2016-09-07T06:33:53.469Z,55.36
2016-09-07T06:34:25.791Z,55.76
2016-09-07T06:34:58.123Z,55.56
2016-09-07T06:35:30.449Z,55.36
2016-09-07T06:36:02.771Z,55.78
2016-09-07T06:36:35.081Z,55.49
2016-09-07T06:37:07.481Z,55.3
2016-09-07T06:37:41.701Z,55.36
2016-09-07T06:38:14.944Z,55.59
2016-09-07T06:38:49.620Z,55.78
2016-09-07T06:40:42.077Z,55.49
2016-09-07T06:41:15.119Z,55.68
2016-09-07T06:41:48.420Z,55.88
2016-09-07T06:42:22.402Z,55.68
2016-09-07T06:42:56.108Z,55.4
2016-09-07T06:43:29.432Z,55.4
2016-09-07T06:44:02.963Z,55.59
2016-09-07T06:44:35.603Z,55.59
2016-09-07T06:45:08.652Z,55.59
2016-09-07T06:45:42.792Z,55.68
2016-09-07T06:46:18.195Z,55.49
2016-09-07T06:46:50.551Z,55.49
2016-09-07T06:47:23.302Z,55.68
2016-09-07T06:47:56.710Z,55.59
2016-09-07T06:48:29.495Z,55.68
2016-09-07T06:49:01.925Z,55.49
2016-09-07T06:49:35.289Z,55.59
2016-09-07T06:50:08.398Z,55.78
2016-09-07T06:50:40.801Z,55.59
2016-09-07T06:51:13.240Z,55.78
2016-09-07T06:51:45.555Z,55.49
2016-09-07T06:52:18.919Z,55.49
2016-09-07T06:52:51.535Z,56
2016-09-07T06:53:23.994Z,55.71
2016-09-07T06:53:56.721Z,55.71
2016-09-07T06:54:29.622Z,55.52
2016-09-07T06:55:03.179Z,55.42
2016-09-07T06:55:35.539Z,55.9
2016-09-07T06:56:11.196Z,55.42
2016-09-07T06:56:46.222Z,55.04
2016-09-07T06:57:20.632Z,55.52
2016-09-07T06:57:59.190Z,54.84
2016-09-07T06:58:34.695Z,55.81
2016-09-07T06:59:15.191Z,55.62
2016-09-07T06:59:57.689Z,55.62
2016-09-07T07:00:34.680Z,55.13